This is the latest recevied weather packets stored in our database for station/object DL9MSR. If no packets are shown the sender has not sent any weather packets the latest 10 day(s).
| Time | Temp. | Humidity | Pressure | Rain* | Wind** | Luminosity | Snow |
|---|---|---|---|---|---|---|---|
| 1777641621 | 22.78° C | 38% | 1026.9 hPa | 0 mm | - | - | - |
| 1777637420 | 22.22° C | 40% | 1027.9 hPa | 0 mm | - | - | - |
| 1777636220 | 22.22° C | 41% | 1028.1 hPa | 0 mm | - | - | - |
| 1777633220 | 21.11° C | 44% | 1028.6 hPa | 0 mm | - | - | - |
| 1777629620 | 20.56° C | 44% | 1029.1 hPa | 0 mm | - | - | - |
| 1777625419 | 18.89° C | 47% | 1029.6 hPa | 0 mm | - | - | - |
| 1777624819 | 18.33° C | 48% | 1029.6 hPa | 0 mm | - | - | - |
| 1777624219 | 17.78° C | 47% | 1029.7 hPa | 0 mm | - | - | - |
| 1777623619 | 17.78° C | 48% | 1029.9 hPa | 0 mm | - | - | - |
| 1777621542 | 16.11° C | 61% | 1030 hPa | 0 mm | - | - | - |
| 1777618220 | 13.89° C | 63% | 1030.2 hPa | 0 mm | - | - | - |
| 1777614920 | 10° C | 75% | 1030.3 hPa | 0 mm | - | - | - |
| 1777613718 | 7.78° C | 88% | 1030.2 hPa | 0 mm | - | - | - |
| 1777612518 | 5° C | 92% | 1030.1 hPa | 0 mm | - | - | - |
| 1777601720 | 4.44° C | 88% | 1029.7 hPa | 0 mm | - | - | - |
| 1777599920 | 5° C | 88% | 1029.8 hPa | 0 mm | - | - | - |
| 1777597540 | 5° C | 87% | 1029.9 hPa | 0 mm | - | - | - |
| 1777596320 | 5.56° C | 86% | 1029.8 hPa | 0 mm | - | - | - |
| 1777593321 | 6.11° C | 85% | 1030.1 hPa | 0 mm | - | - | - |
| 1777592741 | 6.11° C | 84% | 1030.1 hPa | 0 mm | - | - | - |
| 1777584920 | 8.89° C | 77% | 1030.1 hPa | 0 mm | - | - | - |
| 1777576519 | 15.56° C | 53% | 1029.8 hPa | 0 mm | - | - | - |
| 1777571479 | 18.33° C | 42% | 1029.6 hPa | 0 mm | - | - | - |
| 1777569641 | 18.89° C | 42% | 1029.6 hPa | 0 mm | - | - | - |
| 1777567840 | 19.44° C | 39% | 1029.6 hPa | 0 mm | - | - | - |
* Rain latest hour (hover to see other rain measurements)
** Current wind speed in m/s (hover to see current wind gust speed)